createdAt,value
2023-11-26T00:02:23.322Z,23.80
2023-11-26T00:04:52.073Z,23.08
2023-11-26T00:07:19.324Z,25.80
2023-11-26T00:09:46.495Z,23.38
2023-11-26T00:12:13.698Z,27.48
2023-11-26T00:14:40.982Z,23.00
2023-11-26T00:17:08.303Z,23.20
2023-11-26T00:19:35.514Z,24.30
2023-11-26T00:22:04.192Z,21.27
2023-11-26T00:24:31.416Z,25.55
2023-11-26T00:26:58.616Z,26.40
2023-11-26T00:29:25.907Z,19.52
2023-11-26T00:31:53.189Z,27.73
2023-11-26T00:34:20.390Z,19.17
2023-11-26T00:36:48.111Z,19.92
2023-11-26T00:39:16.662Z,27.23
2023-11-26T00:41:43.867Z,19.92
2023-11-26T00:44:11.088Z,32.95
2023-11-26T00:46:38.357Z,19.02
2023-11-26T00:49:05.559Z,29.77
2023-11-26T00:51:32.798Z,22.30
2023-11-26T00:54:00.008Z,22.80
2023-11-26T00:56:28.561Z,20.65
2023-11-26T00:58:55.804Z,22.77
2023-11-26T01:01:23.060Z,23.73
2023-11-26T01:03:50.375Z,19.17
2023-11-26T01:06:17.628Z,23.15
2023-11-26T01:08:44.833Z,21.05
2023-11-26T01:11:12.265Z,23.73
2023-11-26T01:13:40.909Z,21.35
2023-11-26T01:16:08.528Z,19.88
2023-11-26T01:18:35.786Z,20.08
2023-11-26T01:21:02.999Z,19.33
2023-11-26T01:23:30.196Z,27.63
2023-11-26T01:25:57.400Z,29.10
2023-11-26T01:28:24.748Z,24.58
2023-11-26T01:30:53.319Z,24.17
2023-11-26T01:33:20.508Z,26.13
2023-11-26T01:35:47.739Z,25.25
2023-11-26T01:38:15.036Z,28.88
2023-11-26T01:40:42.287Z,27.88
2023-11-26T01:43:09.459Z,28.08
2023-11-26T01:45:36.694Z,31.30
2023-11-26T01:48:05.723Z,33.95
2023-11-26T01:50:33.289Z,32.95
2023-11-26T01:53:00.723Z,30.17
2023-11-26T01:55:28.040Z,34.63
2023-11-26T01:57:55.280Z,29.05
2023-11-26T02:00:23.413Z,30.80
2023-11-26T02:02:50.771Z,33.33
2023-11-26T02:05:19.589Z,26.70
2023-11-26T02:07:46.791Z,27.60
2023-11-26T02:10:14.031Z,31.05
2023-11-26T02:12:41.284Z,27.08
2023-11-26T02:15:09.014Z,26.05
2023-11-26T02:17:36.294Z,28.80
2023-11-26T02:20:03.864Z,31.20
2023-11-26T02:22:32.432Z,35.65
2023-11-26T02:25:01.010Z,26.85
2023-11-26T02:27:28.376Z,28.48
2023-11-26T02:29:55.636Z,26.92
2023-11-26T02:32:22.871Z,29.50
2023-11-26T02:34:50.147Z,26.08
2023-11-26T02:37:17.401Z,22.40
2023-11-26T02:39:44.567Z,24.42
2023-11-26T02:42:13.186Z,27.73
2023-11-26T02:44:40.386Z,23.65
2023-11-26T02:47:07.632Z,22.60
2023-11-26T02:49:34.927Z,24.40
2023-11-26T02:52:02.149Z,25.95
2023-11-26T02:54:29.350Z,26.70
2023-11-26T02:56:56.621Z,23.38
2023-11-26T02:59:25.224Z,23.50
2023-11-26T03:01:53.361Z,26.80
2023-11-26T03:04:20.807Z,26.02
2023-11-26T03:06:48.129Z,32.33
2023-11-26T03:09:15.334Z,27.55
2023-11-26T03:11:42.565Z,22.60
2023-11-26T03:14:12.876Z,24.48
2023-11-26T03:16:41.488Z,26.15
2023-11-26T03:19:08.673Z,23.90
2023-11-26T03:21:35.830Z,26.30
2023-11-26T03:24:03.029Z,27.75
2023-11-26T03:26:30.275Z,28.92
2023-11-26T03:28:57.535Z,28.45
2023-11-26T03:31:25.439Z,26.13
2023-11-26T03:33:54.183Z,30.00
2023-11-26T03:36:21.441Z,30.40
2023-11-26T03:38:48.645Z,30.52
2023-11-26T03:41:15.856Z,25.02
2023-11-26T03:43:43.083Z,28.55
2023-11-26T03:46:10.389Z,25.05
2023-11-26T03:48:37.607Z,29.10
2023-11-26T03:51:06.245Z,21.40
2023-11-26T03:53:33.458Z,23.88
2023-11-26T03:56:00.715Z,23.73
2023-11-26T03:58:27.938Z,25.15
2023-11-26T04:00:55.126Z,26.17
2023-11-26T04:03:22.314Z,24.05
2023-11-26T04:05:49.667Z,23.33
2023-11-26T04:08:18.289Z,24.85
2023-11-26T04:10:45.519Z,27.08
2023-11-26T04:13:12.714Z,21.75
2023-11-26T04:15:39.906Z,26.83
2023-11-26T04:18:07.108Z,31.02
2023-11-26T04:20:34.375Z,25.20
2023-11-26T04:23:01.624Z,29.48
2023-11-26T04:25:30.226Z,24.98
2023-11-26T04:27:57.411Z,26.77
2023-11-26T04:30:24.608Z,31.55
2023-11-26T04:32:51.837Z,29.35
2023-11-26T04:35:19.070Z,26.88
2023-11-26T04:37:46.283Z,22.15
2023-11-26T04:40:13.649Z,27.08
2023-11-26T04:42:42.237Z,26.48
2023-11-26T04:45:10.017Z,22.20
2023-11-26T04:47:37.363Z,29.90
2023-11-26T04:50:04.741Z,26.77
2023-11-26T04:52:33.083Z,23.70
2023-11-26T04:55:00.436Z,22.73
2023-11-26T04:57:27.685Z,20.45
2023-11-26T04:59:56.241Z,23.17
2023-11-26T05:02:23.627Z,20.73
2023-11-26T05:04:50.938Z,21.10
2023-11-26T05:07:18.130Z,19.52
2023-11-26T05:09:45.308Z,22.05
2023-11-26T05:12:12.513Z,19.70
2023-11-26T05:14:39.685Z,23.13
2023-11-26T05:17:08.339Z,19.05
2023-11-26T05:19:35.528Z,23.42
2023-11-26T05:22:02.752Z,27.02
2023-11-26T05:24:29.914Z,18.13
2023-11-26T05:26:57.107Z,19.38
2023-11-26T05:29:24.363Z,27.63
2023-11-26T05:31:51.585Z,21.88
2023-11-26T05:34:20.170Z,23.77
2023-11-26T05:36:47.356Z,25.33
2023-11-26T05:39:14.574Z,21.05
2023-11-26T05:41:41.745Z,22.73
2023-11-26T05:44:09.018Z,23.55
2023-11-26T05:46:36.252Z,22.38
2023-11-26T05:49:03.548Z,25.55
2023-11-26T05:51:32.111Z,21.85
2023-11-26T05:53:59.326Z,25.67
2023-11-26T05:56:26.613Z,25.40
2023-11-26T05:58:53.801Z,22.10
2023-11-26T06:01:24.004Z,21.60
2023-11-26T06:03:51.389Z,25.02
2023-11-26T06:06:18.726Z,24.42
2023-11-26T06:08:47.489Z,21.15
2023-11-26T06:11:14.739Z,24.90
2023-11-26T06:13:41.984Z,31.60
2023-11-26T06:16:09.486Z,25.92
2023-11-26T06:18:36.706Z,32.53
2023-11-26T06:21:04.055Z,29.15
2023-11-26T06:23:31.262Z,30.95
2023-11-26T06:25:59.855Z,26.95
2023-11-26T06:28:27.051Z,28.70
2023-11-26T06:30:54.385Z,34.78
2023-11-26T06:33:21.633Z,30.33
2023-11-26T06:35:48.869Z,30.88
2023-11-26T06:38:16.215Z,40.42
2023-11-26T06:40:43.432Z,34.17
2023-11-26T06:43:12.066Z,32.60
2023-11-26T06:45:39.433Z,33.30
2023-11-26T06:48:06.710Z,24.48
2023-11-26T06:50:36.842Z,27.40
2023-11-26T06:53:04.279Z,32.83
2023-11-26T06:55:31.474Z,30.65
2023-11-26T06:57:58.668Z,32.47
2023-11-26T07:00:27.270Z,35.17
2023-11-26T07:02:54.518Z,31.33
2023-11-26T07:05:21.771Z,28.90
2023-11-26T07:07:49.014Z,31.20
2023-11-26T07:10:16.343Z,35.28
2023-11-26T07:12:43.577Z,32.47
2023-11-26T07:15:10.994Z,35.17
2023-11-26T07:17:39.631Z,33.58
2023-11-26T07:20:07.184Z,32.40
2023-11-26T07:22:34.622Z,38.05
2023-11-26T07:25:01.793Z,33.33
2023-11-26T07:27:29.026Z,33.92
2023-11-26T07:29:56.226Z,43.75
2023-11-26T07:32:23.461Z,39.00
2023-11-26T07:34:52.003Z,41.28
2023-11-26T07:37:19.182Z,41.03
2023-11-26T07:39:46.414Z,33.72
2023-11-26T07:42:13.696Z,46.80
2023-11-26T07:44:40.904Z,35.88
2023-11-26T07:47:08.125Z,40.63
2023-11-26T07:49:36.142Z,39.40
2023-11-26T07:52:04.861Z,39.50
2023-11-26T07:54:32.096Z,42.30
2023-11-26T07:56:59.297Z,37.53
2023-11-26T07:59:26.493Z,34.67
2023-11-26T08:01:53.774Z,38.50
2023-11-26T08:04:21.238Z,35.40
2023-11-26T08:06:48.744Z,33.60
2023-11-26T08:09:17.587Z,36.30
2023-11-26T08:11:45.317Z,34.80
2023-11-26T08:14:12.847Z,31.88
2023-11-26T08:16:40.093Z,36.50
2023-11-26T08:19:07.306Z,45.03
2023-11-26T08:21:34.501Z,40.67
2023-11-26T08:24:01.759Z,35.17
2023-11-26T08:26:30.311Z,36.58
2023-11-26T08:28:57.507Z,27.83
2023-11-26T08:31:24.832Z,27.35
2023-11-26T08:33:52.224Z,30.33
2023-11-26T08:36:19.710Z,22.98
2023-11-26T08:38:47.117Z,27.17
2023-11-26T08:41:14.773Z,21.83
2023-11-26T08:43:43.361Z,23.17
2023-11-26T08:46:11.522Z,30.52
2023-11-26T08:48:39.784Z,23.48
2023-11-26T08:51:07.090Z,29.02
2023-11-26T08:53:34.287Z,20.85
2023-11-26T08:56:01.485Z,26.35
2023-11-26T08:58:28.678Z,21.05
2023-11-26T09:00:57.464Z,26.50
2023-11-26T09:03:24.726Z,21.88
2023-11-26T09:05:52.016Z,22.52
2023-11-26T09:08:19.271Z,20.65
2023-11-26T09:10:46.562Z,29.20
2023-11-26T09:13:13.736Z,22.95
2023-11-26T09:15:40.947Z,15.00
2023-11-26T09:18:09.542Z,21.50
2023-11-26T09:20:36.755Z,24.85
2023-11-26T09:23:03.959Z,22.63
2023-11-26T09:25:31.184Z,21.58
2023-11-26T09:27:58.385Z,21.98
2023-11-26T09:30:25.732Z,26.58
2023-11-26T09:32:53.036Z,27.63
2023-11-26T09:35:21.678Z,22.80
2023-11-26T09:37:48.885Z,23.30
2023-11-26T09:40:16.059Z,27.48
2023-11-26T09:42:45.169Z,32.20
2023-11-26T09:45:12.379Z,27.52
2023-11-26T09:47:39.623Z,27.08
2023-11-26T09:50:07.276Z,27.20
2023-11-26T09:52:36.409Z,23.17
2023-11-26T09:55:03.916Z,22.40
2023-11-26T09:57:31.582Z,27.80
2023-11-26T09:59:59.137Z,24.77
2023-11-26T10:02:26.464Z,32.17
2023-11-26T10:04:54.324Z,31.45
2023-11-26T10:07:34.373Z,28.00
2023-11-26T10:10:03.465Z,34.40
2023-11-26T10:12:32.980Z,31.65
2023-11-26T10:15:06.920Z,33.13
2023-11-26T10:17:34.142Z,26.05
2023-11-26T10:20:16.825Z,27.83
2023-11-26T10:22:45.964Z,24.67
2023-11-26T10:25:15.119Z,24.25
2023-11-26T10:27:42.355Z,32.67
2023-11-26T10:30:10.062Z,25.30
2023-11-26T10:32:55.430Z,33.85
2023-11-26T10:35:22.654Z,26.00
2023-11-26T10:37:49.838Z,22.33
2023-11-26T10:40:18.825Z,27.15
2023-11-26T10:42:46.742Z,28.90
2023-11-26T10:45:14.034Z,26.10
2023-11-26T10:47:41.729Z,31.05
2023-11-26T10:50:10.311Z,17.83
2023-11-26T10:52:40.143Z,22.98
2023-11-26T10:55:09.153Z,29.20
2023-11-26T10:57:41.188Z,28.08
2023-11-26T11:00:10.205Z,23.13
2023-11-26T11:02:37.921Z,31.38
2023-11-26T11:05:05.812Z,28.80
2023-11-26T11:07:34.009Z,27.58
2023-11-26T11:10:05.577Z,25.73
2023-11-26T11:12:37.835Z,21.58
2023-11-26T11:15:07.224Z,22.88
2023-11-26T11:17:34.617Z,26.75
2023-11-26T11:20:02.079Z,30.08
2023-11-26T11:22:36.101Z,26.38
2023-11-26T11:25:07.360Z,34.80
2023-11-26T11:27:53.968Z,15.30
2023-11-26T11:30:40.180Z,21.35
2023-11-26T11:33:09.424Z,18.20
2023-11-26T11:35:37.141Z,27.38
2023-11-26T11:38:04.597Z,22.38
2023-11-26T11:40:46.645Z,19.58
2023-11-26T11:43:17.133Z,18.73
2023-11-26T11:45:44.409Z,25.90
2023-11-26T11:48:33.181Z,22.83
2023-11-26T11:51:00.418Z,17.83
2023-11-26T11:53:35.189Z,22.00
2023-11-26T11:56:07.331Z,18.95
2023-11-26T11:58:35.724Z,17.90
2023-11-26T12:01:05.371Z,21.73
2023-11-26T12:03:34.860Z,17.05
2023-11-26T12:06:11.446Z,14.32
2023-11-26T12:08:38.714Z,17.50
2023-11-26T12:11:06.049Z,25.77
2023-11-26T12:13:41.277Z,18.73
2023-11-26T12:16:09.126Z,21.75
2023-11-26T12:18:38.092Z,21.08
2023-11-26T12:21:05.673Z,22.27
2023-11-26T12:23:36.614Z,16.17
2023-11-26T12:26:04.690Z,19.23
2023-11-26T12:28:41.256Z,13.15
2023-11-26T12:31:08.476Z,16.85
2023-11-26T12:33:35.748Z,16.27
2023-11-26T12:36:04.905Z,20.98
2023-11-26T12:38:32.330Z,18.63
2023-11-26T12:40:59.683Z,15.40
2023-11-26T12:43:26.953Z,17.55
2023-11-26T12:46:08.397Z,18.88
2023-11-26T12:48:35.623Z,13.65
2023-11-26T12:51:04.287Z,21.35
2023-11-26T12:53:31.489Z,14.32
2023-11-26T12:55:58.719Z,22.27
2023-11-26T12:58:26.636Z,19.63
2023-11-26T13:00:53.902Z,12.02
2023-11-26T13:03:21.427Z,17.55
2023-11-26T13:05:49.210Z,12.82
2023-11-26T13:08:21.123Z,18.65
2023-11-26T13:10:51.628Z,21.35
2023-11-26T13:13:21.468Z,12.32
2023-11-26T13:15:48.796Z,18.13
2023-11-26T13:18:16.352Z,17.13
2023-11-26T13:20:43.625Z,20.17
2023-11-26T13:23:10.870Z,14.52
2023-11-26T13:25:39.462Z,13.77
2023-11-26T13:28:06.758Z,16.27
2023-11-26T13:30:37.391Z,23.05
2023-11-26T13:33:04.802Z,18.08
2023-11-26T13:35:32.183Z,18.95
2023-11-26T13:37:59.404Z,18.13
2023-11-26T13:40:26.602Z,15.90
2023-11-26T13:42:55.263Z,26.27
2023-11-26T13:45:22.713Z,22.65
2023-11-26T13:47:57.722Z,17.45
2023-11-26T13:50:32.569Z,19.27
2023-11-26T13:53:00.329Z,29.70
2023-11-26T13:55:27.654Z,24.35
2023-11-26T13:57:56.318Z,23.48
2023-11-26T14:00:23.624Z,13.00
2023-11-26T14:02:50.894Z,26.30
2023-11-26T14:05:18.109Z,16.73
2023-11-26T14:07:46.388Z,19.63
2023-11-26T14:10:14.134Z,23.27
2023-11-26T14:12:41.369Z,25.52
2023-11-26T14:15:10.462Z,27.05
2023-11-26T14:17:37.672Z,30.52
2023-11-26T14:20:05.265Z,22.45
2023-11-26T14:22:32.449Z,23.83
2023-11-26T14:24:59.733Z,22.98
2023-11-26T14:27:27.005Z,22.75
2023-11-26T14:29:54.225Z,23.42
2023-11-26T14:32:22.938Z,24.73
2023-11-26T14:34:50.204Z,16.02
2023-11-26T14:37:17.441Z,23.65
2023-11-26T14:39:44.664Z,20.95
2023-11-26T14:42:11.898Z,23.30
2023-11-26T14:44:39.089Z,23.45
2023-11-26T14:47:06.654Z,22.58
2023-11-26T14:49:35.219Z,22.23
2023-11-26T14:52:02.527Z,24.75
2023-11-26T14:54:29.758Z,20.20
2023-11-26T14:56:58.959Z,20.58
2023-11-26T14:59:27.525Z,15.45
2023-11-26T15:01:54.783Z,21.42
2023-11-26T15:04:22.115Z,20.88
2023-11-26T15:06:50.778Z,26.25
2023-11-26T15:09:18.034Z,24.63
2023-11-26T15:11:45.253Z,20.55
2023-11-26T15:14:12.621Z,18.60
2023-11-26T15:16:39.880Z,18.65
2023-11-26T15:19:07.165Z,19.90
2023-11-26T15:21:34.399Z,21.77
2023-11-26T15:24:03.310Z,19.80
2023-11-26T15:26:30.560Z,20.70
2023-11-26T15:28:57.798Z,21.30
2023-11-26T15:31:25.001Z,19.63
2023-11-26T15:33:52.294Z,23.88
2023-11-26T15:36:19.977Z,19.92
2023-11-26T15:38:47.554Z,17.30
2023-11-26T15:41:19.366Z,21.38
2023-11-26T15:43:46.716Z,22.55
2023-11-26T15:46:19.054Z,20.83
2023-11-26T15:48:46.409Z,15.35
2023-11-26T15:51:13.720Z,16.48
2023-11-26T15:53:40.927Z,12.90
2023-11-26T15:56:08.785Z,17.40
2023-11-26T15:58:37.374Z,15.23
2023-11-26T16:01:04.709Z,18.40
2023-11-26T16:03:32.090Z,17.20
2023-11-26T16:05:59.365Z,14.00
2023-11-26T16:08:26.540Z,18.95
2023-11-26T16:10:53.771Z,19.00
2023-11-26T16:13:21.015Z,17.15
2023-11-26T16:15:49.659Z,12.95
2023-11-26T16:18:16.930Z,22.80
2023-11-26T16:20:44.189Z,13.05
2023-11-26T16:23:11.384Z,18.00
2023-11-26T16:25:38.603Z,17.92
2023-11-26T16:28:05.882Z,16.17
2023-11-26T16:30:33.133Z,23.88
2023-11-26T16:33:01.756Z,16.25
2023-11-26T16:35:29.061Z,20.42
2023-11-26T16:37:56.261Z,17.75
2023-11-26T16:40:23.472Z,30.02
2023-11-26T16:42:50.729Z,16.27
2023-11-26T16:45:17.981Z,22.83
2023-11-26T16:47:49.004Z,20.80
2023-11-26T16:50:17.606Z,20.70
2023-11-26T16:52:44.806Z,25.60
2023-11-26T16:55:12.206Z,20.48
2023-11-26T16:57:39.629Z,17.20
2023-11-26T17:00:07.394Z,19.27
2023-11-26T17:02:34.691Z,13.80
2023-11-26T17:05:01.958Z,16.98
2023-11-26T17:07:30.571Z,17.95
2023-11-26T17:09:57.847Z,18.38
2023-11-26T17:12:25.089Z,14.55
2023-11-26T17:14:52.277Z,15.70
2023-11-26T17:17:19.639Z,23.00
2023-11-26T17:19:46.967Z,17.70
2023-11-26T17:22:14.201Z,16.52
2023-11-26T17:24:42.812Z,20.77
2023-11-26T17:27:10.023Z,24.45
2023-11-26T17:29:37.237Z,22.75
2023-11-26T17:32:04.727Z,16.90
2023-11-26T17:34:32.054Z,17.20
2023-11-26T17:36:59.360Z,16.27
2023-11-26T17:39:26.627Z,12.95
2023-11-26T17:41:55.192Z,20.70
2023-11-26T17:44:22.413Z,17.13
2023-11-26T17:46:49.738Z,17.88
2023-11-26T17:49:17.022Z,19.70
2023-11-26T17:51:44.241Z,20.20
2023-11-26T17:54:11.585Z,18.20
2023-11-26T17:56:38.762Z,20.25
2023-11-26T17:59:07.345Z,22.20
2023-11-26T18:01:34.775Z,18.55
2023-11-26T18:04:02.142Z,21.48
2023-11-26T18:06:29.649Z,20.30
2023-11-26T18:08:56.855Z,19.02
2023-11-26T18:11:24.036Z,20.67
2023-11-26T18:13:51.230Z,20.60
2023-11-26T18:16:19.856Z,16.60
2023-11-26T18:18:47.084Z,18.20
2023-11-26T18:21:14.300Z,17.75
2023-11-26T18:23:41.483Z,21.80
2023-11-26T18:26:10.347Z,19.63
2023-11-26T18:28:37.539Z,15.88
2023-11-26T18:31:04.811Z,15.82
2023-11-26T18:33:33.487Z,20.42
2023-11-26T18:36:00.743Z,28.73
2023-11-26T18:38:27.966Z,29.30
2023-11-26T18:40:55.186Z,34.13
2023-11-26T18:43:22.384Z,35.88
2023-11-26T18:45:49.660Z,37.97
2023-11-26T18:48:16.881Z,30.23
2023-11-26T18:50:46.640Z,15.80
2023-11-26T18:53:13.830Z,18.70
2023-11-26T18:55:41.059Z,17.13
2023-11-26T18:58:08.277Z,12.30
2023-11-26T19:00:35.528Z,15.30
2023-11-26T19:03:02.866Z,16.55
2023-11-26T19:05:30.097Z,10.00
2023-11-26T19:07:58.685Z,11.15
2023-11-26T19:10:25.874Z,10.52
2023-11-26T19:12:53.110Z,7.95
2023-11-26T19:15:20.326Z,8.18
2023-11-26T19:17:47.562Z,8.98
2023-11-26T19:20:14.812Z,7.15
2023-11-26T19:22:42.121Z,5.50
2023-11-26T19:25:11.059Z,5.88
2023-11-26T19:27:38.372Z,3.72
2023-11-26T19:30:06.229Z,4.00
2023-11-26T19:32:33.519Z,4.15
2023-11-26T19:35:00.727Z,3.95
2023-11-26T19:37:27.926Z,4.53
2023-11-26T19:39:55.293Z,3.42
2023-11-26T19:42:23.929Z,5.68
2023-11-26T19:44:51.169Z,4.70
2023-11-26T19:47:18.378Z,6.00
2023-11-26T19:49:45.606Z,5.55
2023-11-26T19:52:12.840Z,6.93
2023-11-26T19:54:40.080Z,10.90
2023-11-26T19:57:07.278Z,8.23
2023-11-26T19:59:35.869Z,9.05
2023-11-26T20:02:03.242Z,12.60
2023-11-26T20:04:30.568Z,11.27
2023-11-26T20:06:57.817Z,10.23
2023-11-26T20:09:25.039Z,12.88
2023-11-26T20:11:52.202Z,8.43
2023-11-26T20:14:19.458Z,7.50
2023-11-26T20:16:48.098Z,7.00
2023-11-26T20:19:15.386Z,5.72
2023-11-26T20:21:42.778Z,7.35
2023-11-26T20:24:10.031Z,6.70
2023-11-26T20:26:37.219Z,6.05
2023-11-26T20:29:04.415Z,8.02
2023-11-26T20:31:31.700Z,6.43
2023-11-26T20:34:00.573Z,8.32
2023-11-26T20:36:28.211Z,6.03
2023-11-26T20:38:55.399Z,4.90
2023-11-26T20:41:22.694Z,6.43
2023-11-26T20:43:49.939Z,6.80
2023-11-26T20:46:20.549Z,9.32
2023-11-26T20:48:47.922Z,7.82
2023-11-26T20:51:19.075Z,7.13
2023-11-26T20:53:46.262Z,8.05
2023-11-26T20:56:13.459Z,7.50
2023-11-26T20:58:40.628Z,9.73
2023-11-26T21:01:07.911Z,12.68
2023-11-26T21:03:35.153Z,10.75
2023-11-26T21:06:02.541Z,11.60
2023-11-26T21:08:31.101Z,10.63
2023-11-26T21:10:58.336Z,15.85
2023-11-26T21:13:25.587Z,15.63
2023-11-26T21:15:52.823Z,12.75
2023-11-26T21:18:20.022Z,10.90
2023-11-26T21:20:47.486Z,8.48
2023-11-26T21:23:14.745Z,8.57
2023-11-26T21:25:43.539Z,10.85
2023-11-26T21:28:10.852Z,13.32
2023-11-26T21:30:38.082Z,11.20
2023-11-26T21:33:05.308Z,12.18
2023-11-26T21:35:32.831Z,9.18
2023-11-26T21:38:00.075Z,13.20
2023-11-26T21:40:27.264Z,12.82
2023-11-26T21:42:55.946Z,13.38
2023-11-26T21:45:23.134Z,15.65
2023-11-26T21:47:50.497Z,11.38
2023-11-26T21:50:17.834Z,12.85
2023-11-26T21:52:45.295Z,13.50
2023-11-26T21:55:12.750Z,16.15
2023-11-26T21:57:40.026Z,17.10
2023-11-26T22:00:09.412Z,14.60
2023-11-26T22:02:36.802Z,19.83
2023-11-26T22:05:04.172Z,20.80
2023-11-26T22:07:31.367Z,17.65
2023-11-26T22:09:58.601Z,17.70
2023-11-26T22:12:25.805Z,15.93
2023-11-26T22:14:53.687Z,23.08
2023-11-26T22:17:22.241Z,18.02
2023-11-26T22:19:49.477Z,16.45
2023-11-26T22:22:16.720Z,16.00
2023-11-26T22:24:43.968Z,17.65
2023-11-26T22:27:11.152Z,16.25
2023-11-26T22:29:38.362Z,21.02
2023-11-26T22:32:06.028Z,19.73
2023-11-26T22:34:36.290Z,17.00
2023-11-26T22:37:03.581Z,23.60
2023-11-26T22:39:30.844Z,20.55
2023-11-26T22:41:58.049Z,21.02
2023-11-26T22:44:25.291Z,17.65
2023-11-26T22:46:52.715Z,25.67
2023-11-26T22:49:19.987Z,21.88
2023-11-26T22:51:48.674Z,19.00
2023-11-26T22:54:15.883Z,24.55
2023-11-26T22:56:43.099Z,26.05
2023-11-26T22:59:10.289Z,27.83
2023-11-26T23:01:37.573Z,20.33
2023-11-26T23:04:04.975Z,21.98
2023-11-26T23:06:32.231Z,26.27
2023-11-26T23:09:00.818Z,24.38
2023-11-26T23:11:28.069Z,22.17
2023-11-26T23:13:55.300Z,21.58
2023-11-26T23:16:22.934Z,21.67
2023-11-26T23:18:50.345Z,17.95
2023-11-26T23:21:17.647Z,18.92
2023-11-26T23:23:50.285Z,20.88
2023-11-26T23:26:21.981Z,23.80
2023-11-26T23:28:49.471Z,21.00
2023-11-26T23:31:16.982Z,15.27
2023-11-26T23:33:44.393Z,15.30
2023-11-26T23:36:11.991Z,19.55
2023-11-26T23:38:39.202Z,24.75
2023-11-26T23:41:09.372Z,20.08
2023-11-26T23:43:39.868Z,20.45
2023-11-26T23:46:07.679Z,18.13
2023-11-26T23:48:35.058Z,17.85
2023-11-26T23:51:02.226Z,17.00
2023-11-26T23:53:29.452Z,16.63
2023-11-26T23:55:56.624Z,16.70
2023-11-26T23:58:23.931Z,16.45
